sensor_id;sensor_type;location;lat;lon;timestamp;P1;durP1;ratioP1;P2;durP2;ratioP2
9722;SDS011;4900;49.306;8.500;2023-07-13T00:02:16;2.40;;;1.60;;
9722;SDS011;4900;49.306;8.500;2023-07-13T00:04:41;1.95;;;1.58;;
9722;SDS011;4900;49.306;8.500;2023-07-13T00:07:07;2.28;;;1.70;;
9722;SDS011;4900;49.306;8.500;2023-07-13T00:09:33;2.70;;;1.60;;
9722;SDS011;4900;49.306;8.500;2023-07-13T00:11:59;1.88;;;1.60;;
9722;SDS011;4900;49.306;8.500;2023-07-13T00:14:25;3.88;;;1.50;;
9722;SDS011;4900;49.306;8.500;2023-07-13T00:16:52;1.60;;;1.40;;
9722;SDS011;4900;49.306;8.500;2023-07-13T00:19:18;2.30;;;1.50;;
9722;SDS011;4900;49.306;8.500;2023-07-13T00:21:43;2.17;;;1.52;;
9722;SDS011;4900;49.306;8.500;2023-07-13T00:24:10;5.13;;;1.80;;
9722;SDS011;4900;49.306;8.500;2023-07-13T00:26:38;1.42;;;1.33;;
9722;SDS011;4900;49.306;8.500;2023-07-13T00:29:03;2.40;;;1.60;;
9722;SDS011;4900;49.306;8.500;2023-07-13T00:31:31;2.97;;;2.10;;
9722;SDS011;4900;49.306;8.500;2023-07-13T00:33:56;2.20;;;1.80;;
9722;SDS011;4900;49.306;8.500;2023-07-13T00:36:22;2.53;;;1.63;;
9722;SDS011;4900;49.306;8.500;2023-07-13T00:38:47;3.10;;;1.73;;
9722;SDS011;4900;49.306;8.500;2023-07-13T00:41:13;2.30;;;1.63;;
9722;SDS011;4900;49.306;8.500;2023-07-13T00:43:39;2.17;;;1.73;;
9722;SDS011;4900;49.306;8.500;2023-07-13T00:46:13;2.42;;;1.58;;
9722;SDS011;4900;49.306;8.500;2023-07-13T00:48:47;2.80;;;1.67;;
9722;SDS011;4900;49.306;8.500;2023-07-13T00:51:15;2.78;;;1.70;;
9722;SDS011;4900;49.306;8.500;2023-07-13T00:53:43;2.80;;;2.05;;
9722;SDS011;4900;49.306;8.500;2023-07-13T00:56:09;2.35;;;1.73;;
9722;SDS011;4900;49.306;8.500;2023-07-13T00:58:35;2.85;;;1.60;;
9722;SDS011;4900;49.306;8.500;2023-07-13T01:01:01;2.63;;;1.75;;
9722;SDS011;4900;49.306;8.500;2023-07-13T01:03:27;2.83;;;2.10;;
9722;SDS011;4900;49.306;8.500;2023-07-13T01:05:52;2.47;;;1.88;;
9722;SDS011;4900;49.306;8.500;2023-07-13T01:08:19;4.05;;;2.08;;
9722;SDS011;4900;49.306;8.500;2023-07-13T01:10:55;2.45;;;1.65;;
9722;SDS011;4900;49.306;8.500;2023-07-13T01:13:24;1.80;;;1.50;;
9722;SDS011;4900;49.306;8.500;2023-07-13T01:15:50;2.75;;;1.80;;
9722;SDS011;4900;49.306;8.500;2023-07-13T01:18:26;2.65;;;1.70;;
9722;SDS011;4900;49.306;8.500;2023-07-13T01:20:54;2.38;;;1.70;;
9722;SDS011;4900;49.306;8.500;2023-07-13T01:23:21;1.88;;;1.70;;
9722;SDS011;4900;49.306;8.500;2023-07-13T01:25:47;2.03;;;1.83;;
9722;SDS011;4900;49.306;8.500;2023-07-13T01:28:13;1.70;;;1.60;;
9722;SDS011;4900;49.306;8.500;2023-07-13T01:30:39;2.60;;;1.75;;
9722;SDS011;4900;49.306;8.500;2023-07-13T01:33:08;2.08;;;1.70;;
9722;SDS011;4900;49.306;8.500;2023-07-13T01:35:35;2.78;;;2.00;;
9722;SDS011;4900;49.306;8.500;2023-07-13T01:38:01;3.28;;;1.70;;
9722;SDS011;4900;49.306;8.500;2023-07-13T01:40:27;3.17;;;1.92;;
9722;SDS011;4900;49.306;8.500;2023-07-13T01:42:53;2.63;;;1.60;;
9722;SDS011;4900;49.306;8.500;2023-07-13T01:45:18;3.70;;;1.77;;
9722;SDS011;4900;49.306;8.500;2023-07-13T01:47:44;3.00;;;1.80;;
9722;SDS011;4900;49.306;8.500;2023-07-13T01:50:09;2.80;;;1.77;;
9722;SDS011;4900;49.306;8.500;2023-07-13T01:52:35;2.28;;;1.98;;
9722;SDS011;4900;49.306;8.500;2023-07-13T01:55:00;3.55;;;1.70;;
9722;SDS011;4900;49.306;8.500;2023-07-13T01:57:27;3.75;;;1.98;;
9722;SDS011;4900;49.306;8.500;2023-07-13T01:59:53;3.08;;;2.00;;
9722;SDS011;4900;49.306;8.500;2023-07-13T02:02:18;2.10;;;1.80;;
9722;SDS011;4900;49.306;8.500;2023-07-13T02:04:44;2.03;;;1.90;;
9722;SDS011;4900;49.306;8.500;2023-07-13T02:07:10;2.17;;;1.80;;
9722;SDS011;4900;49.306;8.500;2023-07-13T02:09:35;3.08;;;2.00;;
9722;SDS011;4900;49.306;8.500;2023-07-13T02:12:01;2.13;;;1.90;;
9722;SDS011;4900;49.306;8.500;2023-07-13T02:14:26;2.08;;;1.92;;
9722;SDS011;4900;49.306;8.500;2023-07-13T02:16:51;2.50;;;1.80;;
9722;SDS011;4900;49.306;8.500;2023-07-13T02:19:17;2.20;;;1.85;;
9722;SDS011;4900;49.306;8.500;2023-07-13T02:21:42;2.30;;;1.88;;
9722;SDS011;4900;49.306;8.500;2023-07-13T02:24:08;3.30;;;2.00;;
9722;SDS011;4900;49.306;8.500;2023-07-13T02:26:33;4.40;;;2.00;;
9722;SDS011;4900;49.306;8.500;2023-07-13T02:28:59;3.05;;;2.13;;
9722;SDS011;4900;49.306;8.500;2023-07-13T02:31:25;3.63;;;2.33;;
9722;SDS011;4900;49.306;8.500;2023-07-13T02:33:50;2.72;;;1.77;;
9722;SDS011;4900;49.306;8.500;2023-07-13T02:36:16;2.42;;;2.10;;
9722;SDS011;4900;49.306;8.500;2023-07-13T02:38:42;2.92;;;2.10;;
9722;SDS011;4900;49.306;8.500;2023-07-13T02:41:08;2.47;;;1.85;;
9722;SDS011;4900;49.306;8.500;2023-07-13T02:43:34;2.97;;;2.50;;
9722;SDS011;4900;49.306;8.500;2023-07-13T02:46:01;3.83;;;2.40;;
9722;SDS011;4900;49.306;8.500;2023-07-13T02:48:32;2.80;;;2.42;;
9722;SDS011;4900;49.306;8.500;2023-07-13T02:50:58;2.15;;;1.95;;
9722;SDS011;4900;49.306;8.500;2023-07-13T02:53:23;2.38;;;1.83;;
9722;SDS011;4900;49.306;8.500;2023-07-13T02:55:50;3.88;;;2.20;;
9722;SDS011;4900;49.306;8.500;2023-07-13T02:58:15;2.92;;;2.25;;
9722;SDS011;4900;49.306;8.500;2023-07-13T03:00:44;2.83;;;2.00;;
9722;SDS011;4900;49.306;8.500;2023-07-13T03:03:12;2.95;;;2.08;;
9722;SDS011;4900;49.306;8.500;2023-07-13T03:05:39;2.20;;;2.00;;
9722;SDS011;4900;49.306;8.500;2023-07-13T03:08:07;2.97;;;2.20;;
9722;SDS011;4900;49.306;8.500;2023-07-13T03:10:33;3.45;;;2.03;;
9722;SDS011;4900;49.306;8.500;2023-07-13T03:12:58;3.03;;;2.20;;
9722;SDS011;4900;49.306;8.500;2023-07-13T03:15:24;3.67;;;2.17;;
9722;SDS011;4900;49.306;8.500;2023-07-13T03:17:49;3.47;;;2.15;;
9722;SDS011;4900;49.306;8.500;2023-07-13T03:20:15;3.50;;;2.40;;
9722;SDS011;4900;49.306;8.500;2023-07-13T03:22:40;2.75;;;2.30;;
9722;SDS011;4900;49.306;8.500;2023-07-13T03:25:06;2.33;;;2.03;;
9722;SDS011;4900;49.306;8.500;2023-07-13T03:27:33;3.97;;;2.20;;
9722;SDS011;4900;49.306;8.500;2023-07-13T03:29:58;3.08;;;1.95;;
9722;SDS011;4900;49.306;8.500;2023-07-13T03:32:28;4.80;;;2.50;;
9722;SDS011;4900;49.306;8.500;2023-07-13T03:34:55;2.92;;;2.63;;
9722;SDS011;4900;49.306;8.500;2023-07-13T03:37:21;3.95;;;2.65;;
9722;SDS011;4900;49.306;8.500;2023-07-13T03:39:46;2.85;;;2.55;;
9722;SDS011;4900;49.306;8.500;2023-07-13T03:42:12;3.95;;;2.25;;
9722;SDS011;4900;49.306;8.500;2023-07-13T03:44:38;3.17;;;2.33;;
9722;SDS011;4900;49.306;8.500;2023-07-13T03:47:05;2.30;;;2.10;;
9722;SDS011;4900;49.306;8.500;2023-07-13T03:49:34;3.38;;;2.38;;
9722;SDS011;4900;49.306;8.500;2023-07-13T03:52:00;5.05;;;2.30;;
9722;SDS011;4900;49.306;8.500;2023-07-13T03:54:25;2.78;;;2.40;;
9722;SDS011;4900;49.306;8.500;2023-07-13T03:56:50;3.78;;;2.40;;
9722;SDS011;4900;49.306;8.500;2023-07-13T03:59:16;2.63;;;2.20;;
9722;SDS011;4900;49.306;8.500;2023-07-13T04:01:42;2.33;;;2.13;;
9722;SDS011;4900;49.306;8.500;2023-07-13T04:04:08;2.45;;;2.20;;
9722;SDS011;4900;49.306;8.500;2023-07-13T04:06:34;2.70;;;2.40;;
9722;SDS011;4900;49.306;8.500;2023-07-13T04:09:00;4.03;;;2.50;;
9722;SDS011;4900;49.306;8.500;2023-07-13T04:11:29;3.42;;;2.72;;
9722;SDS011;4900;49.306;8.500;2023-07-13T04:13:56;2.28;;;2.08;;
9722;SDS011;4900;49.306;8.500;2023-07-13T04:16:22;2.80;;;2.20;;
9722;SDS011;4900;49.306;8.500;2023-07-13T04:18:49;2.97;;;2.13;;
9722;SDS011;4900;49.306;8.500;2023-07-13T04:21:15;2.40;;;2.20;;
9722;SDS011;4900;49.306;8.500;2023-07-13T04:23:41;3.35;;;2.40;;
9722;SDS011;4900;49.306;8.500;2023-07-13T04:26:06;2.97;;;2.67;;
9722;SDS011;4900;49.306;8.500;2023-07-13T04:28:32;2.47;;;2.28;;
9722;SDS011;4900;49.306;8.500;2023-07-13T04:30:58;2.92;;;2.30;;
9722;SDS011;4900;49.306;8.500;2023-07-13T04:33:26;2.65;;;2.20;;
9722;SDS011;4900;49.306;8.500;2023-07-13T04:35:53;2.90;;;2.20;;
9722;SDS011;4900;49.306;8.500;2023-07-13T04:38:23;3.70;;;2.30;;
9722;SDS011;4900;49.306;8.500;2023-07-13T04:40:50;2.88;;;2.17;;
9722;SDS011;4900;49.306;8.500;2023-07-13T04:43:16;3.80;;;2.30;;
9722;SDS011;4900;49.306;8.500;2023-07-13T04:45:41;2.42;;;2.22;;
9722;SDS011;4900;49.306;8.500;2023-07-13T04:48:07;3.10;;;2.05;;
9722;SDS011;4900;49.306;8.500;2023-07-13T04:50:32;3.25;;;2.00;;
9722;SDS011;4900;49.306;8.500;2023-07-13T04:53:00;3.95;;;2.20;;
9722;SDS011;4900;49.306;8.500;2023-07-13T04:55:26;2.58;;;2.00;;
9722;SDS011;4900;49.306;8.500;2023-07-13T04:57:54;2.70;;;2.22;;
9722;SDS011;4900;49.306;8.500;2023-07-13T05:00:20;3.42;;;2.38;;
9722;SDS011;4900;49.306;8.500;2023-07-13T05:02:45;6.07;;;3.08;;
9722;SDS011;4900;49.306;8.500;2023-07-13T05:05:11;2.80;;;2.50;;
9722;SDS011;4900;49.306;8.500;2023-07-13T05:07:36;3.25;;;2.28;;
9722;SDS011;4900;49.306;8.500;2023-07-13T05:10:02;3.25;;;2.30;;
9722;SDS011;4900;49.306;8.500;2023-07-13T05:12:29;2.95;;;2.50;;
9722;SDS011;4900;49.306;8.500;2023-07-13T05:14:54;2.97;;;2.00;;
9722;SDS011;4900;49.306;8.500;2023-07-13T05:17:20;5.00;;;2.45;;
9722;SDS011;4900;49.306;8.500;2023-07-13T05:19:46;3.55;;;2.28;;
9722;SDS011;4900;49.306;8.500;2023-07-13T05:22:12;2.50;;;2.30;;
9722;SDS011;4900;49.306;8.500;2023-07-13T05:24:37;3.25;;;2.20;;
9722;SDS011;4900;49.306;8.500;2023-07-13T05:27:03;2.63;;;1.92;;
9722;SDS011;4900;49.306;8.500;2023-07-13T05:29:28;2.60;;;2.20;;
9722;SDS011;4900;49.306;8.500;2023-07-13T05:31:54;3.97;;;2.60;;
9722;SDS011;4900;49.306;8.500;2023-07-13T05:34:20;3.72;;;2.28;;
9722;SDS011;4900;49.306;8.500;2023-07-13T05:36:45;3.10;;;2.28;;
9722;SDS011;4900;49.306;8.500;2023-07-13T05:39:11;3.30;;;2.10;;
9722;SDS011;4900;49.306;8.500;2023-07-13T05:41:36;2.55;;;2.10;;
9722;SDS011;4900;49.306;8.500;2023-07-13T05:44:02;2.70;;;2.20;;
9722;SDS011;4900;49.306;8.500;2023-07-13T05:46:28;2.22;;;2.00;;
9722;SDS011;4900;49.306;8.500;2023-07-13T05:48:53;3.78;;;2.10;;
9722;SDS011;4900;49.306;8.500;2023-07-13T05:51:19;3.42;;;2.10;;
9722;SDS011;4900;49.306;8.500;2023-07-13T05:53:45;3.75;;;2.38;;
9722;SDS011;4900;49.306;8.500;2023-07-13T05:56:10;3.63;;;2.00;;
9722;SDS011;4900;49.306;8.500;2023-07-13T05:58:36;4.18;;;2.00;;
9722;SDS011;4900;49.306;8.500;2023-07-13T06:01:03;3.92;;;2.30;;
9722;SDS011;4900;49.306;8.500;2023-07-13T06:03:38;3.10;;;1.75;;
9722;SDS011;4900;49.306;8.500;2023-07-13T06:06:04;5.78;;;2.00;;
9722;SDS011;4900;49.306;8.500;2023-07-13T06:08:31;3.15;;;1.77;;
9722;SDS011;4900;49.306;8.500;2023-07-13T06:11:13;4.03;;;2.33;;
9722;SDS011;4900;49.306;8.500;2023-07-13T06:13:41;2.47;;;2.20;;
9722;SDS011;4900;49.306;8.500;2023-07-13T06:16:06;5.68;;;2.55;;
9722;SDS011;4900;49.306;8.500;2023-07-13T06:18:33;4.78;;;2.03;;
9722;SDS011;4900;49.306;8.500;2023-07-13T06:21:00;3.05;;;2.08;;
9722;SDS011;4900;49.306;8.500;2023-07-13T06:23:30;2.78;;;2.10;;
9722;SDS011;4900;49.306;8.500;2023-07-13T06:25:55;2.70;;;2.17;;
9722;SDS011;4900;49.306;8.500;2023-07-13T06:28:21;3.72;;;2.10;;
9722;SDS011;4900;49.306;8.500;2023-07-13T06:30:46;2.40;;;2.08;;
9722;SDS011;4900;49.306;8.500;2023-07-13T06:33:12;2.88;;;2.20;;
9722;SDS011;4900;49.306;8.500;2023-07-13T06:35:37;5.13;;;2.03;;
9722;SDS011;4900;49.306;8.500;2023-07-13T06:38:03;2.90;;;1.92;;
9722;SDS011;4900;49.306;8.500;2023-07-13T06:40:29;2.63;;;1.90;;
9722;SDS011;4900;49.306;8.500;2023-07-13T06:42:55;2.60;;;1.60;;
9722;SDS011;4900;49.306;8.500;2023-07-13T06:45:21;3.03;;;2.15;;
9722;SDS011;4900;49.306;8.500;2023-07-13T06:47:46;2.92;;;2.03;;
9722;SDS011;4900;49.306;8.500;2023-07-13T06:50:12;2.35;;;1.80;;
9722;SDS011;4900;49.306;8.500;2023-07-13T06:52:37;1.90;;;1.80;;
9722;SDS011;4900;49.306;8.500;2023-07-13T06:55:02;2.10;;;1.90;;
9722;SDS011;4900;49.306;8.500;2023-07-13T06:57:28;4.15;;;2.03;;
9722;SDS011;4900;49.306;8.500;2023-07-13T06:59:54;3.85;;;1.80;;
9722;SDS011;4900;49.306;8.500;2023-07-13T07:02:19;3.58;;;1.80;;
9722;SDS011;4900;49.306;8.500;2023-07-13T07:04:44;1.92;;;1.70;;
9722;SDS011;4900;49.306;8.500;2023-07-13T07:07:10;2.05;;;1.70;;
9722;SDS011;4900;49.306;8.500;2023-07-13T07:09:35;2.78;;;1.70;;
9722;SDS011;4900;49.306;8.500;2023-07-13T07:12:02;2.10;;;1.55;;
9722;SDS011;4900;49.306;8.500;2023-07-13T07:14:28;2.10;;;1.60;;
9722;SDS011;4900;49.306;8.500;2023-07-13T07:16:53;1.52;;;1.42;;
9722;SDS011;4900;49.306;8.500;2023-07-13T07:19:18;2.53;;;1.75;;
9722;SDS011;4900;49.306;8.500;2023-07-13T07:21:44;2.22;;;1.60;;
9722;SDS011;4900;49.306;8.500;2023-07-13T07:24:09;1.92;;;1.60;;
9722;SDS011;4900;49.306;8.500;2023-07-13T07:26:35;2.53;;;1.80;;
9722;SDS011;4900;49.306;8.500;2023-07-13T07:29:00;2.25;;;1.50;;
9722;SDS011;4900;49.306;8.500;2023-07-13T07:31:25;1.77;;;1.38;;
9722;SDS011;4900;49.306;8.500;2023-07-13T07:33:51;2.75;;;1.42;;
9722;SDS011;4900;49.306;8.500;2023-07-13T07:36:16;2.22;;;1.60;;
9722;SDS011;4900;49.306;8.500;2023-07-13T07:38:42;4.15;;;1.60;;
9722;SDS011;4900;49.306;8.500;2023-07-13T07:41:08;1.50;;;1.30;;
9722;SDS011;4900;49.306;8.500;2023-07-13T07:43:34;3.53;;;1.38;;
9722;SDS011;4900;49.306;8.500;2023-07-13T07:45:59;3.35;;;1.40;;
9722;SDS011;4900;49.306;8.500;2023-07-13T07:48:25;2.35;;;1.45;;
9722;SDS011;4900;49.306;8.500;2023-07-13T07:50:51;2.08;;;1.20;;
9722;SDS011;4900;49.306;8.500;2023-07-13T07:53:17;4.28;;;1.50;;
9722;SDS011;4900;49.306;8.500;2023-07-13T07:55:43;2.75;;;1.30;;
9722;SDS011;4900;49.306;8.500;2023-07-13T07:58:08;1.88;;;1.20;;
9722;SDS011;4900;49.306;8.500;2023-07-13T08:00:34;1.80;;;1.30;;
9722;SDS011;4900;49.306;8.500;2023-07-13T08:03:00;2.47;;;1.40;;
9722;SDS011;4900;49.306;8.500;2023-07-13T08:05:26;1.90;;;1.40;;
9722;SDS011;4900;49.306;8.500;2023-07-13T08:07:52;3.35;;;1.50;;
9722;SDS011;4900;49.306;8.500;2023-07-13T08:10:17;2.20;;;1.60;;
9722;SDS011;4900;49.306;8.500;2023-07-13T08:12:43;2.55;;;1.52;;
9722;SDS011;4900;49.306;8.500;2023-07-13T08:15:12;2.08;;;1.60;;
9722;SDS011;4900;49.306;8.500;2023-07-13T08:17:40;1.95;;;1.35;;
9722;SDS011;4900;49.306;8.500;2023-07-13T08:20:05;3.30;;;1.80;;
9722;SDS011;4900;49.306;8.500;2023-07-13T08:22:31;2.53;;;1.95;;
9722;SDS011;4900;49.306;8.500;2023-07-13T08:24:58;7.53;;;2.58;;
9722;SDS011;4900;49.306;8.500;2023-07-13T08:27:24;5.07;;;2.00;;
9722;SDS011;4900;49.306;8.500;2023-07-13T08:29:51;2.33;;;1.90;;
9722;SDS011;4900;49.306;8.500;2023-07-13T08:32:18;2.85;;;2.10;;
9722;SDS011;4900;49.306;8.500;2023-07-13T08:34:45;4.70;;;2.05;;
9722;SDS011;4900;49.306;8.500;2023-07-13T08:37:10;2.53;;;1.80;;
9722;SDS011;4900;49.306;8.500;2023-07-13T08:39:36;2.95;;;1.98;;
9722;SDS011;4900;49.306;8.500;2023-07-13T08:42:04;3.10;;;2.00;;
9722;SDS011;4900;49.306;8.500;2023-07-13T08:44:40;2.97;;;1.98;;
9722;SDS011;4900;49.306;8.500;2023-07-13T08:47:15;4.63;;;2.10;;
9722;SDS011;4900;49.306;8.500;2023-07-13T08:49:42;2.30;;;1.80;;
9722;SDS011;4900;49.306;8.500;2023-07-13T08:54:58;2.28;;;1.80;;
9722;SDS011;4900;49.306;8.500;2023-07-13T08:57:28;3.30;;;1.98;;
9722;SDS011;4900;49.306;8.500;2023-07-13T08:59:58;2.75;;;1.58;;
9722;SDS011;4900;49.306;8.500;2023-07-13T09:02:28;2.45;;;1.52;;
9722;SDS011;4900;49.306;8.500;2023-07-13T09:05:19;2.60;;;1.45;;
9722;SDS011;4900;49.306;8.500;2023-07-13T09:07:57;2.38;;;1.58;;
9722;SDS011;4900;49.306;8.500;2023-07-13T09:10:44;4.28;;;1.60;;
9722;SDS011;4900;49.306;8.500;2023-07-13T09:15:47;2.08;;;1.48;;
9722;SDS011;4900;49.306;8.500;2023-07-13T09:18:26;3.85;;;1.70;;
9722;SDS011;4900;49.306;8.500;2023-07-13T09:23:28;2.83;;;1.75;;
9722;SDS011;4900;49.306;8.500;2023-07-13T09:25:58;1.70;;;1.60;;
9722;SDS011;4900;49.306;8.500;2023-07-13T09:28:29;2.42;;;1.75;;
9722;SDS011;4900;49.306;8.500;2023-07-13T09:31:06;2.22;;;1.70;;
9722;SDS011;4900;49.306;8.500;2023-07-13T09:33:37;3.28;;;1.80;;
9722;SDS011;4900;49.306;8.500;2023-07-13T09:36:16;2.85;;;1.65;;
9722;SDS011;4900;49.306;8.500;2023-07-13T09:38:44;2.50;;;1.50;;
9722;SDS011;4900;49.306;8.500;2023-07-13T09:44:10;2.92;;;1.60;;
9722;SDS011;4900;49.306;8.500;2023-07-13T09:46:38;2.17;;;1.77;;
9722;SDS011;4900;49.306;8.500;2023-07-13T09:49:09;2.42;;;1.70;;
9722;SDS011;4900;49.306;8.500;2023-07-13T09:51:36;2.22;;;1.58;;
9722;SDS011;4900;49.306;8.500;2023-07-13T09:54:03;3.80;;;1.77;;
9722;SDS011;4900;49.306;8.500;2023-07-13T09:56:29;3.33;;;1.50;;
9722;SDS011;4900;49.306;8.500;2023-07-13T09:58:55;1.92;;;1.60;;
9722;SDS011;4900;49.306;8.500;2023-07-13T10:01:36;3.83;;;1.80;;
9722;SDS011;4900;49.306;8.500;2023-07-13T10:04:10;3.83;;;1.70;;
9722;SDS011;4900;49.306;8.500;2023-07-13T10:06:38;4.00;;;1.83;;
9722;SDS011;4900;49.306;8.500;2023-07-13T10:09:06;3.08;;;1.90;;
9722;SDS011;4900;49.306;8.500;2023-07-13T10:11:34;2.35;;;1.60;;
9722;SDS011;4900;49.306;8.500;2023-07-13T10:16:38;2.50;;;1.60;;
9722;SDS011;4900;49.306;8.500;2023-07-13T10:21:46;3.13;;;1.73;;
9722;SDS011;4900;49.306;8.500;2023-07-13T10:24:20;2.72;;;1.50;;
9722;SDS011;4900;49.306;8.500;2023-07-13T10:26:47;2.00;;;1.30;;
9722;SDS011;4900;49.306;8.500;2023-07-13T10:29:17;2.63;;;1.50;;
9722;SDS011;4900;49.306;8.500;2023-07-13T10:31:45;1.45;;;1.35;;
9722;SDS011;4900;49.306;8.500;2023-07-13T10:34:11;3.63;;;1.60;;
9722;SDS011;4900;49.306;8.500;2023-07-13T10:36:42;3.25;;;1.40;;
9722;SDS011;4900;49.306;8.500;2023-07-13T10:39:14;2.35;;;1.50;;
9722;SDS011;4900;49.306;8.500;2023-07-13T10:41:43;2.45;;;1.50;;
9722;SDS011;4900;49.306;8.500;2023-07-13T10:44:18;3.95;;;1.45;;
9722;SDS011;4900;49.306;8.500;2023-07-13T10:46:50;1.85;;;1.60;;
9722;SDS011;4900;49.306;8.500;2023-07-13T10:49:18;2.40;;;1.50;;
9722;SDS011;4900;49.306;8.500;2023-07-13T10:51:45;2.00;;;1.58;;
9722;SDS011;4900;49.306;8.500;2023-07-13T10:56:44;2.75;;;1.67;;
9722;SDS011;4900;49.306;8.500;2023-07-13T10:59:13;2.80;;;1.70;;
9722;SDS011;4900;49.306;8.500;2023-07-13T11:01:58;2.20;;;1.50;;
9722;SDS011;4900;49.306;8.500;2023-07-13T11:04:46;1.65;;;1.40;;
9722;SDS011;4900;49.306;8.500;2023-07-13T11:07:23;2.88;;;1.40;;
9722;SDS011;4900;49.306;8.500;2023-07-13T11:09:54;1.95;;;1.50;;
9722;SDS011;4900;49.306;8.500;2023-07-13T11:17:46;2.47;;;1.52;;
9722;SDS011;4900;49.306;8.500;2023-07-13T11:28:04;3.17;;;1.60;;
9722;SDS011;4900;49.306;8.500;2023-07-13T11:30:35;2.70;;;1.40;;
9722;SDS011;4900;49.306;8.500;2023-07-13T11:33:09;2.60;;;1.50;;
9722;SDS011;4900;49.306;8.500;2023-07-13T11:38:22;2.97;;;1.60;;
9722;SDS011;4900;49.306;8.500;2023-07-13T11:40:48;1.83;;;1.50;;
9722;SDS011;4900;49.306;8.500;2023-07-13T11:43:17;2.63;;;1.55;;
9722;SDS011;4900;49.306;8.500;2023-07-13T11:45:43;2.75;;;1.52;;
9722;SDS011;4900;49.306;8.500;2023-07-13T11:48:22;2.42;;;1.55;;
9722;SDS011;4900;49.306;8.500;2023-07-13T11:50:54;1.65;;;1.55;;
9722;SDS011;4900;49.306;8.500;2023-07-13T11:53:27;2.03;;;1.33;;
9722;SDS011;4900;49.306;8.500;2023-07-13T11:55:54;2.63;;;1.65;;
9722;SDS011;4900;49.306;8.500;2023-07-13T11:58:21;2.05;;;1.50;;
9722;SDS011;4900;49.306;8.500;2023-07-13T12:00:49;3.15;;;1.60;;
9722;SDS011;4900;49.306;8.500;2023-07-13T12:03:17;1.73;;;1.40;;
9722;SDS011;4900;49.306;8.500;2023-07-13T12:05:55;1.77;;;1.50;;
9722;SDS011;4900;49.306;8.500;2023-07-13T12:08:28;2.65;;;1.67;;
9722;SDS011;4900;49.306;8.500;2023-07-13T12:10:59;2.63;;;1.55;;
9722;SDS011;4900;49.306;8.500;2023-07-13T12:13:34;3.42;;;1.50;;
9722;SDS011;4900;49.306;8.500;2023-07-13T12:16:00;1.77;;;1.45;;
9722;SDS011;4900;49.306;8.500;2023-07-13T12:18:28;2.75;;;1.60;;
9722;SDS011;4900;49.306;8.500;2023-07-13T12:20:56;1.88;;;1.40;;
9722;SDS011;4900;49.306;8.500;2023-07-13T12:25:50;2.72;;;1.50;;
9722;SDS011;4900;49.306;8.500;2023-07-13T12:28:23;2.78;;;1.60;;
9722;SDS011;4900;49.306;8.500;2023-07-13T12:30:57;2.50;;;1.50;;
9722;SDS011;4900;49.306;8.500;2023-07-13T12:33:27;1.77;;;1.60;;
9722;SDS011;4900;49.306;8.500;2023-07-13T12:35:54;2.67;;;1.73;;
9722;SDS011;4900;49.306;8.500;2023-07-13T12:38:20;1.50;;;1.40;;
9722;SDS011;4900;49.306;8.500;2023-07-13T12:40:49;2.13;;;1.35;;
9722;SDS011;4900;49.306;8.500;2023-07-13T12:43:16;3.33;;;1.60;;
9722;SDS011;4900;49.306;8.500;2023-07-13T12:48:27;2.58;;;1.60;;
9722;SDS011;4900;49.306;8.500;2023-07-13T12:50:53;2.35;;;1.50;;
9722;SDS011;4900;49.306;8.500;2023-07-13T12:53:21;3.42;;;1.50;;
9722;SDS011;4900;49.306;8.500;2023-07-13T12:55:49;2.28;;;1.40;;
9722;SDS011;4900;49.306;8.500;2023-07-13T13:01:04;2.67;;;1.52;;
9722;SDS011;4900;49.306;8.500;2023-07-13T13:04:12;1.98;;;1.50;;
9722;SDS011;4900;49.306;8.500;2023-07-13T13:06:24;1.77;;;1.33;;
9722;SDS011;4900;49.306;8.500;2023-07-13T13:08:53;2.40;;;1.42;;
9722;SDS011;4900;49.306;8.500;2023-07-13T13:11:21;2.15;;;1.75;;
9722;SDS011;4900;49.306;8.500;2023-07-13T13:13:48;2.50;;;1.30;;
9722;SDS011;4900;49.306;8.500;2023-07-13T13:16:26;2.00;;;1.50;;
9722;SDS011;4900;49.306;8.500;2023-07-13T13:18:57;2.15;;;1.45;;
9722;SDS011;4900;49.306;8.500;2023-07-13T13:21:27;3.03;;;1.50;;
9722;SDS011;4900;49.306;8.500;2023-07-13T13:23:52;2.35;;;1.60;;
9722;SDS011;4900;49.306;8.500;2023-07-13T13:26:19;1.77;;;1.42;;
9722;SDS011;4900;49.306;8.500;2023-07-13T13:28:46;1.75;;;1.40;;
9722;SDS011;4900;49.306;8.500;2023-07-13T13:31:13;3.38;;;1.50;;
9722;SDS011;4900;49.306;8.500;2023-07-13T13:33:39;2.67;;;1.70;;
9722;SDS011;4900;49.306;8.500;2023-07-13T13:36:17;4.85;;;1.63;;
9722;SDS011;4900;49.306;8.500;2023-07-13T13:38:47;3.50;;;1.60;;
9722;SDS011;4900;49.306;8.500;2023-07-13T13:41:14;2.30;;;1.80;;
9722;SDS011;4900;49.306;8.500;2023-07-13T13:43:40;2.40;;;1.50;;
9722;SDS011;4900;49.306;8.500;2023-07-13T13:46:12;3.05;;;1.60;;
9722;SDS011;4900;49.306;8.500;2023-07-13T13:48:38;4.00;;;1.50;;
9722;SDS011;4900;49.306;8.500;2023-07-13T13:51:26;2.38;;;1.58;;
9722;SDS011;4900;49.306;8.500;2023-07-13T13:53:50;3.15;;;1.50;;
9722;SDS011;4900;49.306;8.500;2023-07-13T13:56:17;2.45;;;1.65;;
9722;SDS011;4900;49.306;8.500;2023-07-13T13:58:43;2.15;;;1.50;;
9722;SDS011;4900;49.306;8.500;2023-07-13T14:01:13;2.15;;;1.55;;
9722;SDS011;4900;49.306;8.500;2023-07-13T14:03:48;2.28;;;1.40;;
9722;SDS011;4900;49.306;8.500;2023-07-13T14:06:14;1.73;;;1.52;;
9722;SDS011;4900;49.306;8.500;2023-07-13T14:08:41;2.25;;;1.50;;
9722;SDS011;4900;49.306;8.500;2023-07-13T14:11:10;2.95;;;1.50;;
9722;SDS011;4900;49.306;8.500;2023-07-13T14:13:42;1.90;;;1.60;;
9722;SDS011;4900;49.306;8.500;2023-07-13T14:16:12;1.73;;;1.60;;
9722;SDS011;4900;49.306;8.500;2023-07-13T14:18:43;1.73;;;1.52;;
9722;SDS011;4900;49.306;8.500;2023-07-13T14:21:20;2.97;;;1.50;;
9722;SDS011;4900;49.306;8.500;2023-07-13T14:23:47;2.03;;;1.67;;
9722;SDS011;4900;49.306;8.500;2023-07-13T14:26:17;3.45;;;1.40;;
9722;SDS011;4900;49.306;8.500;2023-07-13T14:28:46;2.55;;;1.60;;
9722;SDS011;4900;49.306;8.500;2023-07-13T14:31:14;3.13;;;1.52;;
9722;SDS011;4900;49.306;8.500;2023-07-13T14:33:41;2.42;;;1.50;;
9722;SDS011;4900;49.306;8.500;2023-07-13T14:36:21;2.47;;;1.50;;
9722;SDS011;4900;49.306;8.500;2023-07-13T14:38:50;2.47;;;1.30;;
9722;SDS011;4900;49.306;8.500;2023-07-13T14:41:15;2.05;;;1.58;;
9722;SDS011;4900;49.306;8.500;2023-07-13T14:43:41;2.17;;;1.58;;
9722;SDS011;4900;49.306;8.500;2023-07-13T14:46:08;2.38;;;1.60;;
9722;SDS011;4900;49.306;8.500;2023-07-13T14:48:48;2.25;;;1.60;;
9722;SDS011;4900;49.306;8.500;2023-07-13T14:51:14;2.20;;;1.40;;
9722;SDS011;4900;49.306;8.500;2023-07-13T14:53:39;2.55;;;1.50;;
9722;SDS011;4900;49.306;8.500;2023-07-13T14:56:11;2.05;;;1.58;;
9722;SDS011;4900;49.306;8.500;2023-07-13T14:58:37;2.22;;;1.60;;
9722;SDS011;4900;49.306;8.500;2023-07-13T15:01:09;4.25;;;1.65;;
9722;SDS011;4900;49.306;8.500;2023-07-13T15:03:44;3.40;;;1.65;;
9722;SDS011;4900;49.306;8.500;2023-07-13T15:06:12;2.50;;;1.80;;
9722;SDS011;4900;49.306;8.500;2023-07-13T15:08:38;1.77;;;1.55;;
9722;SDS011;4900;49.306;8.500;2023-07-13T15:11:06;3.15;;;1.63;;
9722;SDS011;4900;49.306;8.500;2023-07-13T15:13:33;1.60;;;1.50;;
9722;SDS011;4900;49.306;8.500;2023-07-13T15:15:59;1.90;;;1.48;;
9722;SDS011;4900;49.306;8.500;2023-07-13T15:18:25;3.45;;;1.50;;
9722;SDS011;4900;49.306;8.500;2023-07-13T15:20:53;1.50;;;1.40;;
9722;SDS011;4900;49.306;8.500;2023-07-13T15:23:20;1.80;;;1.35;;
9722;SDS011;4900;49.306;8.500;2023-07-13T15:25:47;1.73;;;1.48;;
9722;SDS011;4900;49.306;8.500;2023-07-13T15:28:13;2.83;;;1.58;;
9722;SDS011;4900;49.306;8.500;2023-07-13T15:33:16;2.28;;;1.60;;
9722;SDS011;4900;49.306;8.500;2023-07-13T15:35:47;2.83;;;1.55;;
9722;SDS011;4900;49.306;8.500;2023-07-13T15:38:18;2.15;;;1.60;;
9722;SDS011;4900;49.306;8.500;2023-07-13T15:40:48;1.83;;;1.50;;
9722;SDS011;4900;49.306;8.500;2023-07-13T15:43:15;2.85;;;1.55;;
9722;SDS011;4900;49.306;8.500;2023-07-13T15:45:42;3.15;;;1.80;;
9722;SDS011;4900;49.306;8.500;2023-07-13T15:48:21;2.17;;;1.60;;
9722;SDS011;4900;49.306;8.500;2023-07-13T15:50:52;2.42;;;1.55;;
9722;SDS011;4900;49.306;8.500;2023-07-13T15:53:29;2.78;;;1.48;;
9722;SDS011;4900;49.306;8.500;2023-07-13T15:55:57;2.47;;;1.40;;
9722;SDS011;4900;49.306;8.500;2023-07-13T15:58:23;2.13;;;1.60;;
9722;SDS011;4900;49.306;8.500;2023-07-13T16:00:50;2.63;;;1.40;;
9722;SDS011;4900;49.306;8.500;2023-07-13T16:03:16;3.20;;;1.60;;
9722;SDS011;4900;49.306;8.500;2023-07-13T16:05:42;2.47;;;1.67;;